Time;durP1;ratioP1;P1;durP2;ratioP2;P2;SDS_P1;SDS_P2;PMS_P1;PMS_P2;Temp;Humidity;BMP_temperature;BMP_pressure;BME280_temperature;BME280_humidity;BME280_pressure;Samples;Min_cycle;Max_cycle;Signal;HPM_P1;HPM_P2
2022/11/27 00:00:24;;;;;;;15.20;10.95;;;;;;;;;;2084686;28;20061;-67
2022/11/27 00:01:44;;;;;;;14.15;10.70;;;;;;;;;;2085161;28;20029;-67
2022/11/27 00:03:02;;;;;;;14.30;10.52;;;;;;;;;;2085062;28;20041;-68
2022/11/27 00:04:21;;;;;;;15.07;10.48;;;;;;;;;;2084282;28;20029;-67
2022/11/27 00:05:49;;;;;;;13.18;9.90;;;;;;;;;;2086520;28;20054;-67
2022/11/27 00:07:08;;;;;;;17.55;11.07;;;;;;;;;;2083818;28;20588;-67
2022/11/27 00:08:27;;;;;;;16.73;11.05;;;;;;;;;;2079873;28;20488;-67
2022/11/27 00:09:46;;;;;;;17.17;10.68;;;;;;;;;;2086402;28;20173;-67
2022/11/27 00:11:06;;;;;;;17.05;10.38;;;;;;;;;;2086116;28;20390;-67
2022/11/27 00:12:25;;;;;;;15.73;11.23;;;;;;;;;;2088097;28;20033;-67
2022/11/27 00:13:44;;;;;;;13.88;10.43;;;;;;;;;;2088552;28;20041;-68
2022/11/27 00:15:03;;;;;;;17.67;10.70;;;;;;;;;;2085311;28;20064;-68
2022/11/27 00:16:23;;;;;;;21.25;11.77;;;;;;;;;;2083074;28;20044;-67
2022/11/27 00:17:42;;;;;;;14.07;10.95;;;;;;;;;;2088090;28;20038;-67
2022/11/27 00:19:01;;;;;;;15.20;10.30;;;;;;;;;;2083794;28;20026;-68
2022/11/27 00:20:20;;;;;;;17.17;11.82;;;;;;;;;;2084747;28;20033;-67
2022/11/27 00:21:38;;;;;;;16.95;11.35;;;;;;;;;;2086797;28;20036;-67
2022/11/27 00:22:57;;;;;;;16.45;11.13;;;;;;;;;;2088594;28;20104;-67
2022/11/27 00:24:16;;;;;;;19.40;10.75;;;;;;;;;;2087611;28;20490;-67
2022/11/27 00:25:35;;;;;;;15.93;10.77;;;;;;;;;;2085142;28;20048;-67
2022/11/27 00:26:54;;;;;;;18.77;10.40;;;;;;;;;;2087618;28;20037;-67
2022/11/27 00:28:13;;;;;;;18.73;10.98;;;;;;;;;;2089004;28;20044;-67
2022/11/27 00:29:32;;;;;;;17.77;11.20;;;;;;;;;;2087105;28;20041;-67
2022/11/27 00:30:51;;;;;;;13.77;9.88;;;;;;;;;;2086261;28;20037;-67
2022/11/27 00:32:11;;;;;;;13.68;11.07;;;;;;;;;;2087775;28;20471;-67
2022/11/27 00:33:30;;;;;;;17.95;11.40;;;;;;;;;;2087114;28;20072;-67
2022/11/27 00:34:49;;;;;;;16.08;10.77;;;;;;;;;;2085069;28;20060;-67
2022/11/27 00:36:08;;;;;;;14.43;10.57;;;;;;;;;;2087202;28;20025;-66
2022/11/27 00:37:27;;;;;;;14.75;11.27;;;;;;;;;;2085721;28;20025;-67
2022/11/27 00:38:46;;;;;;;16.08;11.70;;;;;;;;;;2087799;28;20029;-67
2022/11/27 00:40:05;;;;;;;18.95;11.70;;;;;;;;;;2086263;28;20046;-67
2022/11/27 00:41:26;;;;;;;14.35;11.00;;;;;;;;;;2087948;28;20057;-67
2022/11/27 00:42:45;;;;;;;14.90;10.93;;;;;;;;;;2088983;28;20033;-67
2022/11/27 00:44:05;;;;;;;14.70;11.30;;;;;;;;;;2087341;28;20416;-67
2022/11/27 00:45:24;;;;;;;14.18;10.73;;;;;;;;;;2084645;28;20045;-67
2022/11/27 00:46:43;;;;;;;15.70;10.70;;;;;;;;;;2087490;28;20029;-67
2022/11/27 00:48:02;;;;;;;13.32;10.30;;;;;;;;;;2089290;28;20107;-67
2022/11/27 00:49:21;;;;;;;17.45;10.93;;;;;;;;;;2086549;28;20033;-68
2022/11/27 00:50:40;;;;;;;14.18;10.65;;;;;;;;;;2086884;28;20080;-67
2022/11/27 00:51:59;;;;;;;15.18;10.20;;;;;;;;;;2086232;28;20029;-67
2022/11/27 00:53:18;;;;;;;13.55;10.60;;;;;;;;;;2087809;28;20046;-68
2022/11/27 00:54:37;;;;;;;13.20;10.52;;;;;;;;;;2087187;28;20041;-67
2022/11/27 00:55:56;;;;;;;14.63;10.23;;;;;;;;;;2085978;28;20096;-67
2022/11/27 00:57:15;;;;;;;12.45;9.90;;;;;;;;;;2087404;28;20032;-67
2022/11/27 00:58:34;;;;;;;15.43;10.52;;;;;;;;;;2085383;28;20033;-67
2022/11/27 00:59:53;;;;;;;14.40;10.35;;;;;;;;;;2084494;28;20033;-67
2022/11/27 01:01:13;;;;;;;13.13;10.23;;;;;;;;;;2087885;28;20047;-67
2022/11/27 01:02:32;;;;;;;14.70;9.80;;;;;;;;;;2088057;28;20061;-67
2022/11/27 01:03:51;;;;;;;15.43;10.02;;;;;;;;;;2088277;28;20481;-67
2022/11/27 01:05:11;;;;;;;12.45;9.70;;;;;;;;;;2084427;28;20123;-67
2022/11/27 01:06:30;;;;;;;16.80;10.20;;;;;;;;;;2085889;28;20565;-66
2022/11/27 01:07:49;;;;;;;17.33;10.35;;;;;;;;;;2085142;28;20045;-66
2022/11/27 01:09:08;;;;;;;15.73;10.63;;;;;;;;;;2088086;28;20112;-67
2022/11/27 01:10:28;;;;;;;14.45;10.15;;;;;;;;;;2084461;28;20444;-66
2022/11/27 01:11:46;;;;;;;16.65;10.50;;;;;;;;;;2086171;28;20021;-67
2022/11/27 01:13:06;;;;;;;14.68;10.70;;;;;;;;;;2088633;28;20025;-66
2022/11/27 01:14:25;;;;;;;14.85;10.50;;;;;;;;;;2085853;28;20123;-67
2022/11/27 01:15:44;;;;;;;15.02;10.40;;;;;;;;;;2082062;28;20029;-69
2022/11/27 01:17:02;;;;;;;13.98;9.80;;;;;;;;;;2085054;28;20024;-66
2022/11/27 01:18:21;;;;;;;15.00;10.65;;;;;;;;;;2087058;28;20428;-66
2022/11/27 01:19:40;;;;;;;14.48;10.15;;;;;;;;;;2087128;28;20108;-66
2022/11/27 01:20:59;;;;;;;12.88;10.00;;;;;;;;;;2087108;28;20086;-66
2022/11/27 01:22:18;;;;;;;13.02;10.52;;;;;;;;;;2085760;28;20025;-66
2022/11/27 01:23:37;;;;;;;14.40;10.05;;;;;;;;;;2087639;28;20032;-66
2022/11/27 01:24:56;;;;;;;18.48;10.45;;;;;;;;;;2086254;28;20108;-66
2022/11/27 01:26:16;;;;;;;14.77;10.15;;;;;;;;;;2082353;28;20033;-66
2022/11/27 01:27:35;;;;;;;15.07;11.10;;;;;;;;;;2085292;28;20021;-67
2022/11/27 01:28:55;;;;;;;17.08;10.88;;;;;;;;;;2084006;28;20037;-66
2022/11/27 01:30:14;;;;;;;15.93;10.73;;;;;;;;;;2081583;28;20120;-66
2022/11/27 01:31:33;;;;;;;13.70;9.48;;;;;;;;;;2085888;28;20064;-67
2022/11/27 01:32:52;;;;;;;16.73;10.98;;;;;;;;;;2087438;28;20037;-66
2022/11/27 01:34:13;;;;;;;14.73;11.20;;;;;;;;;;2083424;28;20036;-66
2022/11/27 01:35:32;;;;;;;14.13;10.18;;;;;;;;;;2084525;28;20556;-67
2022/11/27 01:36:51;;;;;;;14.43;10.57;;;;;;;;;;2084408;28;20458;-67
2022/11/27 01:38:10;;;;;;;16.20;10.73;;;;;;;;;;2084161;28;20013;-66
2022/11/27 01:39:29;;;;;;;13.82;10.45;;;;;;;;;;2082895;28;20021;-67
2022/11/27 01:40:48;;;;;;;14.40;10.38;;;;;;;;;;2085608;28;20029;-67
2022/11/27 01:42:08;;;;;;;16.75;11.05;;;;;;;;;;2084445;28;20424;-66
2022/11/27 01:43:35;;;;;;;17.70;10.60;;;;;;;;;;2086960;28;20029;-66
2022/11/27 01:44:54;;;;;;;13.75;10.82;;;;;;;;;;2085774;28;20025;-66
2022/11/27 01:46:39;;;;;;;14.65;9.85;;;;;;;;;;2081916;28;20550;-66
2022/11/27 01:48:00;;;;;;;15.75;11.18;;;;;;;;;;2084383;28;20033;-66
2022/11/27 01:49:31;;;;;;;16.67;11.50;;;;;;;;;;2083128;28;20053;-66
2022/11/27 01:50:51;;;;;;;13.35;10.20;;;;;;;;;;2084035;28;20029;-66
2022/11/27 01:52:11;;;;;;;15.50;10.70;;;;;;;;;;2084245;28;20028;-66
2022/11/27 01:53:33;;;;;;;14.93;10.15;;;;;;;;;;2084323;28;20041;-66
2022/11/27 01:54:55;;;;;;;14.18;10.75;;;;;;;;;;2088229;28;20025;-66
2022/11/27 01:56:14;;;;;;;19.20;11.07;;;;;;;;;;2081068;28;20029;-66
2022/11/27 01:57:35;;;;;;;20.15;11.35;;;;;;;;;;2084905;28;20049;-66
2022/11/27 01:58:56;;;;;;;16.88;10.88;;;;;;;;;;2084925;28;20065;-66
2022/11/27 02:00:16;;;;;;;15.73;11.63;;;;;;;;;;2081337;28;20025;-66
2022/11/27 02:01:35;;;;;;;15.93;10.68;;;;;;;;;;2084423;28;20044;-66
2022/11/27 02:02:54;;;;;;;17.27;12.15;;;;;;;;;;2087394;28;20564;-66
2022/11/27 02:04:13;;;;;;;19.77;11.23;;;;;;;;;;2083531;28;20044;-66
2022/11/27 02:05:32;;;;;;;15.70;11.40;;;;;;;;;;2084298;28;20382;-66
2022/11/27 02:06:51;;;;;;;18.00;11.27;;;;;;;;;;2083412;28;20033;-66
2022/11/27 02:08:11;;;;;;;16.48;11.45;;;;;;;;;;2082668;28;20025;-66
2022/11/27 02:09:30;;;;;;;19.77;11.80;;;;;;;;;;2084980;28;20037;-66
2022/11/27 02:10:51;;;;;;;18.35;11.23;;;;;;;;;;2085780;28;20073;-67
2022/11/27 02:12:23;;;;;;;16.92;12.00;;;;;;;;;;2083723;28;20017;-67
2022/11/27 02:13:45;;;;;;;20.70;12.38;;;;;;;;;;2080603;28;20489;-67
2022/11/27 02:15:09;;;;;;;17.77;11.25;;;;;;;;;;2083545;28;20037;-68
2022/11/27 02:16:32;;;;;;;17.88;11.90;;;;;;;;;;2083680;28;20481;-67
2022/11/27 02:18:10;;;;;;;19.83;11.93;;;;;;;;;;2084237;28;20065;-67
2022/11/27 02:19:38;;;;;;;18.77;12.07;;;;;;;;;;2085304;28;20033;-67
2022/11/27 02:21:05;;;;;;;18.85;11.93;;;;;;;;;;2083737;28;20025;-67
2022/11/27 02:22:36;;;;;;;19.38;11.55;;;;;;;;;;2084873;28;20028;-67
2022/11/27 02:24:14;;;;;;;20.98;12.48;;;;;;;;;;2082008;28;20081;-67
2022/11/27 02:25:40;;;;;;;18.90;11.77;;;;;;;;;;2084269;28;20040;-67
2022/11/27 02:27:18;;;;;;;21.88;11.90;;;;;;;;;;2083845;28;20030;-67
2022/11/27 02:28:56;;;;;;;20.75;12.23;;;;;;;;;;2087973;28;20029;-67
2022/11/27 02:30:15;;;;;;;23.35;12.25;;;;;;;;;;2082128;28;20041;-67
2022/11/27 02:31:45;;;;;;;18.02;11.20;;;;;;;;;;2079233;28;20037;-68
2022/11/27 02:33:08;;;;;;;15.45;10.20;;;;;;;;;;2085196;28;20104;-67
2022/11/27 02:34:30;;;;;;;17.70;11.63;;;;;;;;;;2085985;28;20060;-67
2022/11/27 02:35:57;;;;;;;22.02;12.68;;;;;;;;;;2083359;28;20037;-67
2022/11/27 02:37:21;;;;;;;18.75;10.85;;;;;;;;;;2082979;28;20048;-67
2022/11/27 02:38:43;;;;;;;20.13;12.48;;;;;;;;;;2087374;28;20049;-67
2022/11/27 02:40:11;;;;;;;17.67;11.88;;;;;;;;;;2083937;28;20025;-68
2022/11/27 02:41:46;;;;;;;18.80;11.25;;;;;;;;;;2081999;28;20707;-68
2022/11/27 02:43:08;;;;;;;21.90;11.35;;;;;;;;;;2087329;28;20041;-67
2022/11/27 02:44:29;;;;;;;16.30;10.90;;;;;;;;;;2085715;28;20509;-67
2022/11/27 02:45:50;;;;;;;14.75;9.68;;;;;;;;;;2081799;28;20446;-67
2022/11/27 02:47:09;;;;;;;18.42;11.40;;;;;;;;;;2083447;28;20041;-67
2022/11/27 02:48:31;;;;;;;13.65;9.93;;;;;;;;;;2086075;28;20029;-67
2022/11/27 02:49:50;;;;;;;19.08;10.98;;;;;;;;;;2083352;28;20021;-67
2022/11/27 02:51:10;;;;;;;13.48;9.77;;;;;;;;;;2085450;28;20028;-67
2022/11/27 02:52:30;;;;;;;13.52;9.02;;;;;;;;;;2086502;28;20393;-67
2022/11/27 02:54:00;;;;;;;13.85;9.15;;;;;;;;;;2083249;28;20033;-67
2022/11/27 02:55:22;;;;;;;13.98;10.15;;;;;;;;;;2086770;28;20398;-67
2022/11/27 02:56:42;;;;;;;14.45;9.27;;;;;;;;;;2086622;28;20108;-67
2022/11/27 02:58:04;;;;;;;15.82;10.38;;;;;;;;;;2079513;28;20486;-67
2022/11/27 02:59:25;;;;;;;18.90;11.10;;;;;;;;;;2086037;28;20025;-66
2022/11/27 03:00:44;;;;;;;17.05;11.05;;;;;;;;;;2084125;28;20029;-67
2022/11/27 03:02:08;;;;;;;13.75;9.20;;;;;;;;;;2081923;28;20029;-67
2022/11/27 03:03:30;;;;;;;15.95;10.63;;;;;;;;;;2086206;28;20045;-67
2022/11/27 03:04:49;;;;;;;;;;;;;;;;;;2087983;28;20518;-67
2022/11/27 03:06:10;;;;;;;12.88;9.88;;;;;;;;;;2084100;28;19905;-67
2022/11/27 03:07:49;;;;;;;14.45;10.57;;;;;;;;;;2083459;28;20049;-67
2022/11/27 03:09:13;;;;;;;17.00;9.88;;;;;;;;;;2084850;28;20029;-67
2022/11/27 03:10:38;;;;;;;14.70;10.40;;;;;;;;;;2083385;28;20104;-67
2022/11/27 03:11:58;;;;;;;14.43;9.50;;;;;;;;;;2083660;28;20108;-67
2022/11/27 03:13:17;;;;;;;16.42;10.45;;;;;;;;;;2089485;28;20480;-67
2022/11/27 03:14:37;;;;;;;11.50;8.90;;;;;;;;;;2087994;28;20431;-68
2022/11/27 03:16:02;;;;;;;11.73;8.38;;;;;;;;;;2083435;28;20292;-66
2022/11/27 03:17:33;;;;;;;11.23;7.80;;;;;;;;;;2083661;28;20508;-68
2022/11/27 03:18:58;;;;;;;10.15;7.97;;;;;;;;;;2084219;28;20088;-67
2022/11/27 03:20:17;;;;;;;10.68;8.90;;;;;;;;;;2082759;28;20029;-66
2022/11/27 03:21:41;;;;;;;12.65;9.27;;;;;;;;;;2080699;28;20033;-68
2022/11/27 03:23:00;;;;;;;11.02;8.20;;;;;;;;;;2089062;28;20037;-66
2022/11/27 03:24:19;;;;;;;8.95;6.95;;;;;;;;;;2086196;28;20021;-66
2022/11/27 03:25:38;;;;;;;8.75;7.72;;;;;;;;;;2085677;28;20033;-67
2022/11/27 03:26:57;;;;;;;11.02;8.80;;;;;;;;;;2083156;28;20033;-67
2022/11/27 03:28:16;;;;;;;12.85;8.45;;;;;;;;;;2084892;28;20041;-67
2022/11/27 03:29:41;;;;;;;9.55;7.90;;;;;;;;;;2084267;28;20463;-67
2022/11/27 03:31:00;;;;;;;10.20;7.88;;;;;;;;;;2080134;28;20029;-67
2022/11/27 03:32:20;;;;;;;10.30;6.90;;;;;;;;;;2084344;28;20034;-67
2022/11/27 03:33:39;;;;;;;9.88;7.20;;;;;;;;;;2086187;28;20403;-67
2022/11/27 03:34:59;;;;;;;8.27;6.90;;;;;;;;;;2087991;28;20372;-67
2022/11/27 03:36:19;;;;;;;8.98;7.82;;;;;;;;;;2083005;28;20116;-67
2022/11/27 03:37:39;;;;;;;10.48;6.70;;;;;;;;;;2082747;28;20440;-66
2022/11/27 03:38:57;;;;;;;8.40;7.53;;;;;;;;;;2087176;28;20069;-66
2022/11/27 03:40:17;;;;;;;8.80;5.95;;;;;;;;;;2082919;28;20030;-67
2022/11/27 03:41:55;;;;;;;7.13;6.15;;;;;;;;;;2082996;28;20030;-67
2022/11/27 03:43:21;;;;;;;6.68;5.82;;;;;;;;;;2088781;28;20504;-67
2022/11/27 03:44:43;;;;;;;6.75;6.05;;;;;;;;;;2089475;28;20029;-67
2022/11/27 03:46:08;;;;;;;7.30;6.55;;;;;;;;;;2084614;28;20460;-67
2022/11/27 03:47:33;;;;;;;6.68;6.07;;;;;;;;;;2079885;28;20037;-67
2022/11/27 03:49:06;;;;;;;6.70;6.10;;;;;;;;;;2087913;28;20049;-66
2022/11/27 03:50:40;;;;;;;6.00;5.47;;;;;;;;;;2083099;28;20061;-67
2022/11/27 03:52:02;;;;;;;9.10;5.72;;;;;;;;;;2081860;28;20506;-67
2022/11/27 03:53:30;;;;;;;6.20;5.45;;;;;;;;;;2087401;28;20120;-67
2022/11/27 03:54:59;;;;;;;5.13;4.72;;;;;;;;;;2089413;28;20029;-67
2022/11/27 03:56:25;;;;;;;5.88;5.38;;;;;;;;;;2084302;28;20103;-67
2022/11/27 03:58:00;;;;;;;5.93;5.32;;;;;;;;;;2081298;28;20053;-67
2022/11/27 03:59:22;;;;;;;6.53;5.50;;;;;;;;;;2084107;28;20029;-67
2022/11/27 04:00:43;;;;;;;6.03;5.43;;;;;;;;;;2084559;28;20420;-67
2022/11/27 04:02:02;;;;;;;6.10;4.93;;;;;;;;;;2084408;28;20112;-67
2022/11/27 04:03:26;;;;;;;6.20;5.43;;;;;;;;;;2087184;28;20037;-67
2022/11/27 04:04:45;;;;;;;6.20;5.20;;;;;;;;;;2088348;28;20033;-67
2022/11/27 04:06:04;;;;;;;5.00;4.53;;;;;;;;;;2085245;28;20237;-68
2022/11/27 04:07:23;;;;;;;5.47;4.97;;;;;;;;;;2082476;28;20022;-67
2022/11/27 04:08:43;;;;;;;4.75;4.35;;;;;;;;;;2088605;28;20036;-67
2022/11/27 04:10:03;;;;;;;6.22;5.53;;;;;;;;;;2084966;28;20025;-67
2022/11/27 04:11:22;;;;;;;4.50;4.10;;;;;;;;;;2087017;28;20119;-68
2022/11/27 04:12:41;;;;;;;5.30;4.80;;;;;;;;;;2087012;28;20021;-69
2022/11/27 04:14:00;;;;;;;5.25;4.75;;;;;;;;;;2084436;28;20498;-68
2022/11/27 04:15:19;;;;;;;4.68;4.28;;;;;;;;;;2085467;28;20041;-67
2022/11/27 04:16:38;;;;;;;4.95;4.45;;;;;;;;;;2087371;28;20103;-67
2022/11/27 04:17:57;;;;;;;4.53;4.18;;;;;;;;;;2081159;28;20029;-67
2022/11/27 04:19:16;;;;;;;5.10;4.63;;;;;;;;;;2088520;28;20037;-67
2022/11/27 04:20:35;;;;;;;4.50;4.10;;;;;;;;;;2086586;28;20033;-67
2022/11/27 04:21:54;;;;;;;4.78;4.38;;;;;;;;;;2083553;28;20057;-67
2022/11/27 04:23:13;;;;;;;4.47;4.15;;;;;;;;;;2083598;28;20029;-67
2022/11/27 04:24:32;;;;;;;4.65;4.30;;;;;;;;;;2085927;28;20033;-67
2022/11/27 04:25:50;;;;;;;4.78;3.95;;;;;;;;;;2085103;28;21699;-67
2022/11/27 04:27:09;;;;;;;4.68;4.28;;;;;;;;;;2083944;28;20029;-67
2022/11/27 04:28:29;;;;;;;4.72;4.22;;;;;;;;;;2084359;28;20041;-67
2022/11/27 04:29:48;;;;;;;4.20;3.90;;;;;;;;;;2084684;28;20077;-67
2022/11/27 04:31:07;;;;;;;3.75;3.55;;;;;;;;;;2086345;28;20511;-67
2022/11/27 04:32:26;;;;;;;4.38;3.97;;;;;;;;;;2086513;28;20040;-67
2022/11/27 04:33:45;;;;;;;3.92;3.63;;;;;;;;;;2082822;28;20060;-67
2022/11/27 04:35:04;;;;;;;5.50;4.45;;;;;;;;;;2087207;28;20029;-67
2022/11/27 04:36:23;;;;;;;4.38;3.95;;;;;;;;;;2086184;28;20033;-67
2022/11/27 04:37:42;;;;;;;5.10;3.70;;;;;;;;;;2081803;28;20029;-67
2022/11/27 04:39:01;;;;;;;4.57;4.15;;;;;;;;;;2086166;28;20153;-67
2022/11/27 04:40:19;;;;;;;4.57;4.22;;;;;;;;;;2085028;28;20501;-67
2022/11/27 04:41:38;;;;;;;4.43;4.07;;;;;;;;;;2083350;28;20025;-67
2022/11/27 04:42:58;;;;;;;4.47;4.10;;;;;;;;;;2088778;28;20111;-66
2022/11/27 04:44:17;;;;;;;4.13;3.83;;;;;;;;;;2086160;28;20108;-66
2022/11/27 04:45:36;;;;;;;4.65;4.30;;;;;;;;;;2083368;28;20120;-67
2022/11/27 04:46:55;;;;;;;4.60;4.20;;;;;;;;;;2086366;28;20079;-66
2022/11/27 04:48:13;;;;;;;4.75;4.40;;;;;;;;;;2085652;28;20040;-67
2022/11/27 04:49:32;;;;;;;4.80;4.40;;;;;;;;;;2086606;28;20045;-67
2022/11/27 04:50:53;;;;;;;4.80;4.40;;;;;;;;;;2084670;28;20029;-67
2022/11/27 04:52:12;;;;;;;5.22;4.80;;;;;;;;;;2083469;28;20038;-67
2022/11/27 04:53:31;;;;;;;4.93;4.53;;;;;;;;;;2084120;28;20025;-68
2022/11/27 04:54:50;;;;;;;5.35;4.95;;;;;;;;;;2087647;28;20493;-67
2022/11/27 04:56:09;;;;;;;5.30;4.88;;;;;;;;;;2084973;28;20034;-67
2022/11/27 04:57:28;;;;;;;4.63;4.22;;;;;;;;;;2084696;28;20021;-67
2022/11/27 04:58:47;;;;;;;4.75;4.30;;;;;;;;;;2085384;28;20160;-67
2022/11/27 05:00:06;;;;;;;5.00;4.40;;;;;;;;;;2083010;28;20029;-67
2022/11/27 05:01:25;;;;;;;5.05;4.63;;;;;;;;;;2084672;28;20017;-68
2022/11/27 05:02:44;;;;;;;4.60;4.20;;;;;;;;;;2088062;28;20044;-67
2022/11/27 05:04:03;;;;;;;17.77;11.02;;;;;;;;;;2083168;28;20025;-67
2022/11/27 05:05:22;;;;;;;6.10;5.35;;;;;;;;;;2079337;28;20037;-67
2022/11/27 05:06:41;;;;;;;6.82;5.22;;;;;;;;;;2087194;28;20033;-67
2022/11/27 05:08:00;;;;;;;76.18;38.25;;;;;;;;;;2084751;28;20036;-67
2022/11/27 05:09:19;;;;;;;5.22;4.72;;;;;;;;;;2086176;28;20037;-67
2022/11/27 05:10:38;;;;;;;5.25;4.78;;;;;;;;;;2087119;28;20428;-67
2022/11/27 05:11:57;;;;;;;6.68;5.97;;;;;;;;;;2083750;28;20030;-67
2022/11/27 05:13:16;;;;;;;23.65;15.10;;;;;;;;;;2087180;28;20447;-67
2022/11/27 05:14:35;;;;;;;39.17;23.20;;;;;;;;;;2086128;28;20505;-67
2022/11/27 05:15:54;;;;;;;9.27;7.28;;;;;;;;;;2083030;28;20037;-67
2022/11/27 05:17:12;;;;;;;6.07;4.80;;;;;;;;;;2087323;28;20037;-67
2022/11/27 05:18:32;;;;;;;5.38;4.60;;;;;;;;;;2085636;28;20037;-67
2022/11/27 05:19:51;;;;;;;5.15;4.75;;;;;;;;;;2084441;28;20975;-66
2022/11/27 05:21:09;;;;;;;5.03;4.60;;;;;;;;;;2087697;28;20052;-67
2022/11/27 05:22:29;;;;;;;4.32;4.03;;;;;;;;;;2086112;28;20017;-67
2022/11/27 05:23:47;;;;;;;5.30;4.90;;;;;;;;;;2084597;28;20107;-67
2022/11/27 05:25:07;;;;;;;4.72;4.32;;;;;;;;;;2085772;28;20041;-67
2022/11/27 05:26:26;;;;;;;4.47;4.07;;;;;;;;;;2085286;28;20469;-67
2022/11/27 05:27:44;;;;;;;4.15;3.85;;;;;;;;;;2084512;28;20112;-67
2022/11/27 05:29:04;;;;;;;5.38;4.75;;;;;;;;;;2085011;28;20060;-66
2022/11/27 05:30:22;;;;;;;4.35;4.05;;;;;;;;;;2082770;28;20087;-66
2022/11/27 05:31:42;;;;;;;4.90;4.50;;;;;;;;;;2084701;28;20082;-66
2022/11/27 05:33:00;;;;;;;5.03;4.53;;;;;;;;;;2087897;28;20112;-66
2022/11/27 05:34:19;;;;;;;5.03;4.53;;;;;;;;;;2083479;28;20108;-66
2022/11/27 05:35:38;;;;;;;5.05;4.65;;;;;;;;;;2078895;28;20069;-67
2022/11/27 05:36:57;;;;;;;4.80;4.40;;;;;;;;;;2087786;28;20017;-67
2022/11/27 05:38:16;;;;;;;5.32;4.50;;;;;;;;;;2084830;28;20028;-67
2022/11/27 05:39:35;;;;;;;5.15;4.30;;;;;;;;;;2083427;28;20056;-67
2022/11/27 05:40:54;;;;;;;4.78;4.40;;;;;;;;;;2086986;28;20017;-67
2022/11/27 05:42:13;;;;;;;4.78;4.38;;;;;;;;;;2083544;28;20441;-67
2022/11/27 05:43:31;;;;;;;4.72;4.35;;;;;;;;;;2085281;28;20485;-68
2022/11/27 05:44:50;;;;;;;4.63;4.22;;;;;;;;;;2086925;28;20485;-67
2022/11/27 05:46:11;;;;;;;4.88;4.38;;;;;;;;;;2084276;28;20026;-67
2022/11/27 05:47:30;;;;;;;4.75;4.35;;;;;;;;;;2084900;28;20037;-68
2022/11/27 05:48:49;;;;;;;4.30;4.00;;;;;;;;;;2086581;28;20032;-67
2022/11/27 05:50:08;;;;;;;4.85;4.13;;;;;;;;;;2080813;28;20033;-68
2022/11/27 05:51:27;;;;;;;5.00;4.50;;;;;;;;;;2085777;28;20025;-67
2022/11/27 05:52:46;;;;;;;4.72;4.32;;;;;;;;;;2088134;28;20041;-67
2022/11/27 05:54:06;;;;;;;5.20;4.38;;;;;;;;;;2082902;28;20432;-67
2022/11/27 05:55:24;;;;;;;4.70;4.18;;;;;;;;;;2084338;28;20119;-67
2022/11/27 05:56:43;;;;;;;4.13;3.83;;;;;;;;;;2087991;28;20497;-67
2022/11/27 05:58:02;;;;;;;5.50;5.00;;;;;;;;;;2081837;28;20493;-67
2022/11/27 05:59:21;;;;;;;5.68;3.97;;;;;;;;;;2083198;28;20021;-67
2022/11/27 06:00:40;;;;;;;4.55;4.22;;;;;;;;;;2081424;28;20037;-67
2022/11/27 06:01:59;;;;;;;5.15;4.70;;;;;;;;;;2084486;28;20449;-67
2022/11/27 06:03:18;;;;;;;4.80;4.40;;;;;;;;;;2087350;28;20401;-67
2022/11/27 06:04:37;;;;;;;5.15;4.70;;;;;;;;;;2083563;28;20029;-68
2022/11/27 06:05:56;;;;;;;5.32;4.93;;;;;;;;;;2080199;28;20497;-68
2022/11/27 06:07:15;;;;;;;5.07;4.68;;;;;;;;;;2081393;28;20485;-67
2022/11/27 06:08:37;;;;;;;5.05;4.55;;;;;;;;;;2087146;28;20025;-67
2022/11/27 06:09:56;;;;;;;5.70;5.20;;;;;;;;;;2084857;28;20034;-67
2022/11/27 06:11:19;;;;;;;5.68;5.18;;;;;;;;;;2084989;28;20417;-67
2022/11/27 06:12:38;;;;;;;5.95;5.18;;;;;;;;;;2088103;28;20036;-68
2022/11/27 06:13:57;;;;;;;6.43;5.50;;;;;;;;;;2087237;28;20037;-67
2022/11/27 06:15:16;;;;;;;5.10;4.70;;;;;;;;;;2083364;28;20485;-68
2022/11/27 06:16:35;;;;;;;5.25;4.85;;;;;;;;;;2088324;28;20509;-68
2022/11/27 06:17:53;;;;;;;5.85;5.10;;;;;;;;;;2087366;28;20025;-67
2022/11/27 06:19:12;;;;;;;5.28;4.78;;;;;;;;;;2087270;28;20042;-67
2022/11/27 06:20:32;;;;;;;5.78;5.30;;;;;;;;;;2086557;28;20419;-67
2022/11/27 06:21:50;;;;;;;4.53;4.22;;;;;;;;;;2086583;28;20029;-67
2022/11/27 06:23:09;;;;;;;5.20;4.70;;;;;;;;;;2085223;28;20096;-68
2022/11/27 06:24:28;;;;;;;4.68;4.28;;;;;;;;;;2087318;28;20099;-68
2022/11/27 06:25:47;;;;;;;5.00;4.63;;;;;;;;;;2084479;28;20036;-68
2022/11/27 06:27:06;;;;;;;5.32;4.82;;;;;;;;;;2086249;28;20044;-68
2022/11/27 06:28:25;;;;;;;5.07;4.57;;;;;;;;;;2087344;28;20032;-68
2022/11/27 06:29:44;;;;;;;5.43;4.53;;;;;;;;;;2084861;28;20459;-67
2022/11/27 06:31:10;;;;;;;7.18;4.97;;;;;;;;;;2081483;28;20033;-67
2022/11/27 06:32:29;;;;;;;5.00;4.68;;;;;;;;;;2087280;28;20017;-68
2022/11/27 06:33:49;;;;;;;5.15;4.65;;;;;;;;;;2086504;28;20033;-67
2022/11/27 06:35:08;;;;;;;6.03;5.43;;;;;;;;;;2083901;28;20025;-67
2022/11/27 06:36:32;;;;;;;5.30;4.90;;;;;;;;;;2087959;28;20104;-67
2022/11/27 06:37:51;;;;;;;5.50;5.00;;;;;;;;;;2086755;28;20025;-67
2022/11/27 06:39:10;;;;;;;5.40;4.65;;;;;;;;;;2083710;28;20041;-67
2022/11/27 06:40:29;;;;;;;5.30;4.75;;;;;;;;;;2083850;28;20108;-67
2022/11/27 06:41:48;;;;;;;5.28;4.80;;;;;;;;;;2086722;28;20033;-67
2022/11/27 06:43:07;;;;;;;5.35;4.88;;;;;;;;;;2088240;28;20025;-67
2022/11/27 06:44:26;;;;;;;6.03;5.47;;;;;;;;;;2086772;28;20025;-67
2022/11/27 06:45:53;;;;;;;5.72;5.22;;;;;;;;;;2082274;28;20040;-67
2022/11/27 06:47:12;;;;;;;6.63;5.40;;;;;;;;;;2089025;28;20045;-67
2022/11/27 06:48:32;;;;;;;5.90;5.30;;;;;;;;;;2089432;28;20029;-67
2022/11/27 06:49:51;;;;;;;6.93;5.80;;;;;;;;;;2088458;28;20029;-67
2022/11/27 06:51:11;;;;;;;6.10;5.60;;;;;;;;;;2086587;28;20104;-67
2022/11/27 06:52:30;;;;;;;7.22;5.70;;;;;;;;;;2089193;28;20049;-67
2022/11/27 06:53:50;;;;;;;6.15;5.55;;;;;;;;;;2089435;28;20029;-67
2022/11/27 06:55:09;;;;;;;5.90;5.40;;;;;;;;;;2087905;28;20033;-67
2022/11/27 06:56:29;;;;;;;6.30;5.70;;;;;;;;;;2088940;28;20497;-67
2022/11/27 06:57:51;;;;;;;5.97;5.47;;;;;;;;;;2084955;28;20065;-67
2022/11/27 06:59:11;;;;;;;5.97;5.45;;;;;;;;;;2088032;28;20025;-67
2022/11/27 07:00:30;;;;;;;6.20;5.60;;;;;;;;;;2083312;28;20037;-67
2022/11/27 07:01:49;;;;;;;7.15;5.30;;;;;;;;;;2087701;28;20424;-67
2022/11/27 07:03:08;;;;;;;6.40;5.28;;;;;;;;;;2085901;28;20444;-68
2022/11/27 07:04:27;;;;;;;6.75;5.75;;;;;;;;;;2087401;28;20037;-67
2022/11/27 07:05:46;;;;;;;5.95;5.35;;;;;;;;;;2085708;28;20480;-68
2022/11/27 07:07:04;;;;;;;6.22;5.70;;;;;;;;;;2085300;28;20040;-67
2022/11/27 07:08:23;;;;;;;6.25;5.65;;;;;;;;;;2089422;28;20041;-67
2022/11/27 07:09:42;;;;;;;6.45;5.30;;;;;;;;;;2089622;28;20104;-68
2022/11/27 07:11:05;;;;;;;5.75;5.25;;;;;;;;;;2087461;28;20037;-67
2022/11/27 07:12:24;;;;;;;6.03;5.43;;;;;;;;;;2085514;28;20033;-68
2022/11/27 07:13:44;;;;;;;6.40;5.80;;;;;;;;;;2086957;28;20033;-67
2022/11/27 07:15:03;;;;;;;8.48;5.82;;;;;;;;;;2086681;28;20029;-68
2022/11/27 07:16:22;;;;;;;6.05;5.53;;;;;;;;;;2087869;28;20037;-67
2022/11/27 07:17:42;;;;;;;5.95;5.45;;;;;;;;;;2086360;28;20077;-67
2022/11/27 07:19:02;;;;;;;7.82;6.45;;;;;;;;;;2087184;28;20029;-68
2022/11/27 07:20:21;;;;;;;5.53;5.03;;;;;;;;;;2088887;28;20021;-67
2022/11/27 07:21:40;;;;;;;7.05;6.25;;;;;;;;;;2088167;28;20040;-67
2022/11/27 07:22:59;;;;;;;6.45;5.80;;;;;;;;;;2089332;28;20366;-67
2022/11/27 07:24:19;;;;;;;6.22;5.60;;;;;;;;;;2085590;28;20567;-67
2022/11/27 07:25:37;;;;;;;7.05;6.10;;;;;;;;;;2089878;28;20032;-67
2022/11/27 07:26:57;;;;;;;6.65;5.85;;;;;;;;;;2089055;28;20029;-67
2022/11/27 07:28:16;;;;;;;6.45;5.53;;;;;;;;;;2084607;28;20021;-67
2022/11/27 07:29:35;;;;;;;7.32;6.57;;;;;;;;;;2082465;28;20406;-72
2022/11/27 07:30:54;;;;;;;8.27;6.57;;;;;;;;;;2084575;28;20029;-69
2022/11/27 07:32:13;;;;;;;7.47;6.32;;;;;;;;;;2084773;28;20033;-72
2022/11/27 07:33:32;;;;;;;7.15;6.45;;;;;;;;;;2084380;28;20042;-69
2022/11/27 07:34:51;;;;;;;8.98;6.53;;;;;;;;;;2086042;28;20511;-69
2022/11/27 07:36:12;;;;;;;7.70;6.90;;;;;;;;;;2086234;28;20072;-69
2022/11/27 07:37:32;;;;;;;7.38;6.60;;;;;;;;;;2088529;28;20032;-69
2022/11/27 07:38:50;;;;;;;8.95;6.80;;;;;;;;;;2088703;28;20481;-69
2022/11/27 07:40:09;;;;;;;8.02;6.78;;;;;;;;;;2086368;28;20501;-69
2022/11/27 07:41:28;;;;;;;8.02;7.07;;;;;;;;;;2082320;28;20547;-68
2022/11/27 07:42:47;;;;;;;9.90;6.85;;;;;;;;;;2082401;28;20025;-70
2022/11/27 07:44:08;;;;;;;9.75;7.25;;;;;;;;;;2084640;28;20033;-70
2022/11/27 07:45:27;;;;;;;10.60;7.53;;;;;;;;;;2086718;28;20486;-72
2022/11/27 07:46:46;;;;;;;8.65;7.65;;;;;;;;;;2087430;28;20040;-72
2022/11/27 07:48:05;;;;;;;9.38;7.88;;;;;;;;;;2085647;28;20029;-70
2022/11/27 07:49:24;;;;;;;8.30;7.47;;;;;;;;;;2088078;28;20119;-70
2022/11/27 07:50:43;;;;;;;9.15;8.07;;;;;;;;;;2085457;28;20029;-70
2022/11/27 07:52:02;;;;;;;10.23;7.78;;;;;;;;;;2085579;28;20029;-70
2022/11/27 07:53:21;;;;;;;11.43;7.82;;;;;;;;;;2089379;28;20033;-69
2022/11/27 07:54:39;;;;;;;9.05;7.20;;;;;;;;;;2087700;28;20060;-71
2022/11/27 07:55:59;;;;;;;10.45;8.68;;;;;;;;;;2086355;28;20037;-71
2022/11/27 07:57:18;;;;;;;8.93;7.65;;;;;;;;;;2085778;28;20556;-70